Terminal Aerodrome Forecast
Issued by NWS Sioux Falls, SD

Home | Current Version | Previous Version | Text Only | Print | Product List | Glossary Off
Versions: 1 2 3 4 5 6 7 8 9 10 11 12 13 14 15 16 17 18 19 20 21 22 23 24 25 26 27 28 29 30 31

000
FTUS43 KFSD 261731
TAFSUX
TAF
KSUX 261731Z 2618/2718 35014KT P6SM OVC012
     FM262200 36011KT 5SM -SN OVC010
     FM270200 35012G18KT 2SM -SN BR OVC010
      TEMPO 2703/2707 3/4SM -SN BKN007
     FM270900 34013G22KT 4SM -SN OVC012
     FM271300 34012G18KT P6SM -SN BKN015 OVC030
     FM271600 34012KT P6SM SCT015 BKN040=

USA.gov is the U.S. government's official web portal to all federal, state and local government web resources and services.